createdAt,value
2022-12-16T00:01:40.948Z,44.75
2022-12-16T00:04:07.469Z,42.05
2022-12-16T00:06:35.112Z,46.20
2022-12-16T00:09:02.140Z,45.28
2022-12-16T00:11:31.930Z,45.28
2022-12-16T00:13:58.413Z,44.20
2022-12-16T00:16:24.973Z,44.88
2022-12-16T00:18:51.884Z,46.75
2022-12-16T00:21:19.358Z,47.30
2022-12-16T00:23:45.883Z,47.00
2022-12-16T00:26:13.163Z,46.60
2022-12-16T00:28:40.579Z,45.53
2022-12-16T00:31:07.685Z,46.00
2022-12-16T00:33:34.750Z,43.35
2022-12-16T00:36:01.481Z,43.53
2022-12-16T00:38:27.981Z,48.53
2022-12-16T00:40:54.546Z,45.95
2022-12-16T00:43:21.896Z,44.65
2022-12-16T00:45:48.705Z,44.20
2022-12-16T00:48:15.735Z,45.83
2022-12-16T00:50:47.263Z,43.55
2022-12-16T00:53:13.716Z,41.38
2022-12-16T00:55:40.186Z,42.13
2022-12-16T00:58:06.600Z,41.20
2022-12-16T01:00:33.138Z,42.25
2022-12-16T01:02:59.696Z,40.58
2022-12-16T01:05:28.845Z,42.70
2022-12-16T01:07:55.839Z,38.15
2022-12-16T01:10:24.466Z,40.20
2022-12-16T01:12:51.334Z,38.88
2022-12-16T01:15:18.734Z,38.50
2022-12-16T01:17:45.492Z,38.20
2022-12-16T01:20:12.173Z,37.88
2022-12-16T01:22:38.686Z,41.75
2022-12-16T01:25:05.705Z,39.65
2022-12-16T01:27:32.171Z,38.20
2022-12-16T01:29:58.721Z,38.38
2022-12-16T01:32:25.700Z,38.08
2022-12-16T01:34:55.179Z,38.28
2022-12-16T01:37:21.992Z,38.17
2022-12-16T01:39:49.065Z,38.60
2022-12-16T01:42:18.891Z,37.72
2022-12-16T01:44:48.424Z,37.25
2022-12-16T01:47:35.512Z,38.30
2022-12-16T01:50:11.648Z,36.63
2022-12-16T01:52:44.054Z,36.50
2022-12-16T01:55:20.652Z,36.22
2022-12-16T01:57:59.281Z,36.45
2022-12-16T02:00:25.874Z,38.40
2022-12-16T02:02:54.065Z,37.95
2022-12-16T02:09:11.639Z,35.97
2022-12-16T02:12:12.107Z,38.38
2022-12-16T02:14:57.146Z,38.20
2022-12-16T02:17:41.727Z,37.17
2022-12-16T02:20:23.441Z,35.88
2022-12-16T02:22:59.820Z,34.58
2022-12-16T02:25:29.150Z,36.92
2022-12-16T02:28:02.261Z,36.05
2022-12-16T02:30:35.445Z,37.30
2022-12-16T02:33:26.205Z,35.72
2022-12-16T02:35:55.984Z,38.58
2022-12-16T02:38:39.170Z,38.75
2022-12-16T02:41:20.999Z,35.80
2022-12-16T02:43:52.181Z,37.13
2022-12-16T02:46:21.141Z,36.90
2022-12-16T02:48:47.702Z,35.80
2022-12-16T02:51:14.921Z,36.60
2022-12-16T02:53:43.338Z,37.38
2022-12-16T02:56:18.722Z,36.13
2022-12-16T02:59:09.663Z,37.47
2022-12-16T03:01:55.690Z,36.15
2022-12-16T03:04:31.615Z,36.05
2022-12-16T03:07:00.740Z,37.40
2022-12-16T03:09:32.107Z,35.13
2022-12-16T03:12:01.105Z,35.88
2022-12-16T03:14:30.801Z,36.03
2022-12-16T03:16:58.126Z,36.85
2022-12-16T03:19:26.969Z,35.95
2022-12-16T03:21:59.230Z,37.25
2022-12-16T03:24:26.199Z,35.45
2022-12-16T03:27:07.910Z,35.83
2022-12-16T03:30:03.288Z,36.50
2022-12-16T03:32:39.150Z,35.33
2022-12-16T03:35:17.752Z,35.53
2022-12-16T03:37:46.520Z,35.65
2022-12-16T03:40:13.914Z,34.33
2022-12-16T03:42:42.253Z,35.72
2022-12-16T03:45:14.070Z,35.85
2022-12-16T03:47:40.503Z,35.33
2022-12-16T03:50:07.287Z,34.97
2022-12-16T03:52:33.908Z,35.92
2022-12-16T03:55:01.548Z,34.38
2022-12-16T03:57:27.946Z,36.55
2022-12-16T03:59:54.398Z,33.53
2022-12-16T04:02:20.943Z,36.10
2022-12-16T04:04:47.527Z,36.85
2022-12-16T04:07:24.450Z,37.47
2022-12-16T04:09:52.493Z,36.33
2022-12-16T04:12:38.390Z,36.10
2022-12-16T04:15:24.445Z,34.22
2022-12-16T04:18:09.277Z,36.97
2022-12-16T04:20:58.142Z,35.30
2022-12-16T04:23:46.522Z,36.50
2022-12-16T04:26:13.104Z,35.78
2022-12-16T04:28:39.852Z,35.72
2022-12-16T04:31:06.666Z,36.17
2022-12-16T04:33:51.861Z,37.15
2022-12-16T04:36:37.104Z,36.42
2022-12-16T04:39:22.255Z,35.85
2022-12-16T04:42:11.600Z,35.22
2022-12-16T04:44:57.034Z,35.90
2022-12-16T04:47:42.149Z,39.13
2022-12-16T04:50:27.420Z,35.13
2022-12-16T04:53:12.409Z,35.88
2022-12-16T04:56:03.642Z,37.03
2022-12-16T04:58:49.209Z,36.22
2022-12-16T05:01:34.179Z,38.05
2022-12-16T05:04:19.229Z,36.70
2022-12-16T05:07:03.949Z,34.00
2022-12-16T05:09:48.967Z,35.35
2022-12-16T05:12:33.931Z,38.67
2022-12-16T05:15:18.895Z,34.83
2022-12-16T05:18:03.668Z,36.10
2022-12-16T05:20:48.708Z,38.00
2022-12-16T05:23:34.085Z,37.08
2022-12-16T05:26:19.196Z,36.10
2022-12-16T05:29:04.240Z,37.70
2022-12-16T05:31:49.231Z,36.70
2022-12-16T05:34:34.237Z,35.85
2022-12-16T05:37:19.346Z,36.72
2022-12-16T05:40:04.422Z,38.30
2022-12-16T05:42:49.697Z,35.20
2022-12-16T05:45:34.486Z,34.75
2022-12-16T05:48:19.422Z,37.15
2022-12-16T05:51:04.259Z,36.80
2022-12-16T05:53:49.347Z,35.72
2022-12-16T05:56:34.466Z,35.80
2022-12-16T05:59:19.553Z,36.67
2022-12-16T06:02:04.451Z,35.08
2022-12-16T06:04:49.219Z,37.53
2022-12-16T06:07:34.269Z,36.63
2022-12-16T06:10:19.338Z,36.83
2022-12-16T06:13:05.727Z,38.88
2022-12-16T06:15:50.896Z,38.33
2022-12-16T06:18:35.903Z,36.53
2022-12-16T06:21:20.734Z,38.45
2022-12-16T08:47:10.688Z,35.20
2022-12-16T08:50:05.598Z,38.95
2022-12-16T10:14:20.195Z,34.90
2022-12-16T10:17:18.023Z,35.95
2022-12-16T11:21:44.433Z,37.78
